Time;durP1;ratioP1;P1;durP2;ratioP2;P2;SDS_P1;SDS_P2;PMS_P1;PMS_P2;Temp;Humidity;BMP_temperature;BMP_pressure;BME280_temperature;BME280_humidity;BME280_pressure;Samples;Min_cycle;Max_cycle;Signal;HPM_P1;HPM_P2
2021/09/11 00:01:48;;;;;;;8.68;2.13;;;;;;;20.84;100.00;99554.91;5077126;28;20035;-50
2021/09/11 00:04:52;;;;;;;7.90;1.90;;;;;;;20.75;100.00;99557.47;5056010;28;20303;-50
2021/09/11 00:07:55;;;;;;;8.70;1.98;;;;;;;20.76;100.00;99554.13;5056452;28;20324;-50
2021/09/11 00:10:58;;;;;;;7.10;2.08;;;;;;;20.83;100.00;99553.41;5055944;28;20156;-51
2021/09/11 00:14:02;;;;;;;2.50;0.60;;;;;;;20.82;100.00;99560.38;5055766;28;20438;-50
2021/09/11 00:17:05;;;;;;;2.58;1.15;;;;;;;20.86;100.00;99569.28;5055618;28;20388;-51
2021/09/11 00:20:09;;;;;;;2.03;0.60;;;;;;;20.84;100.00;99554.91;5055863;28;20031;-51
2021/09/11 00:23:13;;;;;;;4.18;1.45;;;;;;;20.85;100.00;99556.47;5067739;28;20238;-50
2021/09/11 00:26:16;;;;;;;3.13;0.60;;;;;;;20.76;100.00;99559.78;5075809;28;20490;-50
2021/09/11 00:29:19;;;;;;;5.55;1.00;;;;;;;20.78;100.00;99551.47;5075289;28;20196;-51
2021/09/11 00:32:22;;;;;;;3.20;0.95;;;;;;;20.76;100.00;99545.63;5076804;28;20124;-51
2021/09/11 00:35:26;;;;;;;3.70;1.50;;;;;;;20.76;100.00;99542.78;5075109;28;20410;-50
2021/09/11 00:38:29;;;;;;;2.90;0.75;;;;;;;20.71;100.00;99546.50;5074745;28;20062;-50
2021/09/11 00:41:33;;;;;;;2.45;0.98;;;;;;;20.64;100.00;99547.19;5074664;28;20035;-50
2021/09/11 00:44:37;;;;;;;2.92;0.95;;;;;;;20.50;100.00;99542.16;5075005;28;20864;-50
2021/09/11 00:47:40;;;;;;;3.40;0.77;;;;;;;20.62;100.00;99549.81;5075096;28;20078;-50
2021/09/11 00:50:43;;;;;;;2.40;0.55;;;;;;;20.57;100.00;99553.56;5074826;28;20058;-50
2021/09/11 00:53:46;;;;;;;3.15;1.80;;;;;;;20.57;100.00;99550.75;5074571;28;20330;-50
2021/09/11 00:56:51;;;;;;;2.80;1.00;;;;;;;20.56;100.00;99543.56;5074192;28;20403;-50
2021/09/11 00:59:54;;;;;;;1.75;0.80;;;;;;;20.77;100.00;99543.56;5074337;28;20383;-50
2021/09/11 01:02:57;;;;;;;2.17;0.70;;;;;;;20.69;100.00;99554.03;5074246;28;20043;-50
2021/09/11 01:06:01;;;;;;;1.75;0.70;;;;;;;20.80;100.00;99542.44;5074016;28;20042;-50
2021/09/11 01:09:03;;;;;;;3.53;0.95;;;;;;;20.49;100.00;99541.41;5074437;28;20054;-50
2021/09/11 01:12:07;;;;;;;3.42;0.68;;;;;;;20.22;100.00;99548.50;5074210;28;20541;-50
2021/09/11 01:15:12;;;;;;;1.90;0.80;;;;;;;20.15;100.00;99541.44;5075125;28;20339;-50
2021/09/11 01:18:15;;;;;;;4.63;1.05;;;;;;;20.18;100.00;99539.56;5074469;28;20051;-50
2021/09/11 01:21:19;;;;;;;2.53;1.13;;;;;;;20.12;100.00;99538.94;5073856;28;20141;-50
2021/09/11 01:24:22;;;;;;;3.83;1.05;;;;;;;20.05;100.00;99546.03;5053581;28;20043;-50
2021/09/11 01:27:26;;;;;;;6.68;1.15;;;;;;;19.99;100.00;99539.00;5053613;28;20083;-50
2021/09/11 01:30:30;;;;;;;17.10;1.73;;;;;;;20.02;100.00;99537.88;5053923;28;20109;-50
2021/09/11 01:33:33;;;;;;;4.20;1.67;;;;;;;20.03;100.00;99545.06;5053573;28;20066;-50
2021/09/11 01:36:36;;;;;;;4.70;0.93;;;;;;;20.04;100.00;99540.91;5056147;28;20113;-50
2021/09/11 01:39:40;;;;;;;2.13;0.63;;;;;;;20.06;100.00;99541.88;5058959;28;20086;-50
2021/09/11 01:42:43;;;;;;;5.47;2.05;;;;;;;20.15;100.00;99535.00;5056173;28;20152;-50
2021/09/11 01:45:46;;;;;;;5.78;1.33;;;;;;;20.09;100.00;99542.88;5055009;28;20039;-50
2021/09/11 01:48:49;;;;;;;3.63;1.10;;;;;;;20.23;100.00;99541.53;5054671;28;20101;-51
2021/09/11 01:51:52;;;;;;;1.00;0.47;;;;;;;20.24;100.00;99548.72;5054691;28;20036;-50
2021/09/11 01:54:55;;;;;;;3.40;0.90;;;;;;;20.08;100.00;99546.97;5054376;28;20135;-50
2021/09/11 01:57:58;;;;;;;6.63;1.35;;;;;;;20.08;100.00;99544.94;5054157;28;20076;-50
2021/09/11 02:01:01;;;;;;;4.35;1.30;;;;;;;20.06;100.00;99556.03;5054620;28;20467;-51
2021/09/11 02:04:04;;;;;;;3.47;1.27;;;;;;;20.06;100.00;99555.25;5055965;28;20086;-50
2021/09/11 02:07:07;;;;;;;0.82;0.10;;;;;;;20.02;100.00;99561.25;5058974;28;20059;-50
2021/09/11 02:10:11;;;;;;;1.65;0.82;;;;;;;19.99;100.00;99556.69;5090540;28;20135;-51
2021/09/11 02:13:14;;;;;;;1.92;0.82;;;;;;;19.97;100.00;99552.88;5090626;28;20490;-50
2021/09/11 02:16:17;;;;;;;2.70;0.50;;;;;;;19.96;100.00;99554.97;5090460;28;20071;-50
2021/09/11 02:19:20;;;;;;;1.17;0.50;;;;;;;19.96;100.00;99557.03;5090892;28;20035;-50
2021/09/11 02:22:23;;;;;;;4.13;0.95;;;;;;;20.22;100.00;99554.16;5095726;28;20054;-51
2021/09/11 02:25:25;;;;;;;0.80;0.55;;;;;;;20.49;100.00;99551.97;5111076;28;20054;-50
2021/09/11 02:28:28;;;;;;;1.80;0.65;;;;;;;20.28;100.00;99555.53;5110572;28;20055;-50
2021/09/11 02:31:32;;;;;;;4.72;0.77;;;;;;;20.24;100.00;99554.38;5110488;28;20055;-51
2021/09/11 02:34:35;;;;;;;1.55;0.47;;;;;;;20.42;100.00;99550.59;5110867;28;20126;-50
2021/09/11 02:37:37;;;;;;;4.18;0.45;;;;;;;20.56;100.00;99556.94;5110737;28;20059;-51
2021/09/11 02:40:41;;;;;;;4.13;1.42;;;;;;;20.61;100.00;99551.16;5110722;28;20088;-51
2021/09/11 02:43:43;;;;;;;4.00;0.70;;;;;;;20.68;100.00;99550.44;5110778;28;20148;-50
2021/09/11 02:46:46;;;;;;;1.70;0.60;;;;;;;20.72;100.00;99553.72;5110925;28;20046;-50
2021/09/11 02:49:49;;;;;;;6.53;0.90;;;;;;;20.81;100.00;99544.69;5111031;28;20172;-51
2021/09/11 02:52:52;;;;;;;4.70;0.95;;;;;;;20.69;100.00;99549.13;5114102;28;20112;-50
2021/09/11 02:55:54;;;;;;;2.53;0.73;;;;;;;20.70;100.00;99547.84;5114308;28;20117;-50
2021/09/11 02:58:57;;;;;;;2.03;0.50;;;;;;;20.69;100.00;99548.38;5113820;28;20038;-50
2021/09/11 03:02:00;;;;;;;1.95;0.55;;;;;;;20.83;100.00;99536.44;5114276;28;20093;-50
2021/09/11 03:05:04;;;;;;;2.75;0.63;;;;;;;20.79;100.00;99529.59;5114177;28;20112;-50
2021/09/11 03:08:08;;;;;;;3.13;0.75;;;;;;;20.75;100.00;99538.44;5114337;28;20047;-50
2021/09/11 03:11:11;;;;;;;6.57;0.80;;;;;;;20.73;100.00;99532.56;5113949;28;20042;-50
2021/09/11 03:14:14;;;;;;;3.88;0.75;;;;;;;20.68;100.00;99530.63;5113626;28;20100;-50
2021/09/11 03:17:17;;;;;;;2.15;0.88;;;;;;;20.59;100.00;99548.13;5113621;28;20038;-50
2021/09/11 03:20:20;;;;;;;5.68;0.90;;;;;;;20.59;100.00;99539.63;5116123;28;20101;-50
2021/09/11 03:23:23;;;;;;;3.40;1.13;;;;;;;20.70;100.00;99544.25;5115492;28;20716;-50
2021/09/11 03:26:26;;;;;;;3.33;1.13;;;;;;;20.68;100.00;99541.94;5115753;28;20399;-50
2021/09/11 03:29:29;;;;;;;1.35;1.02;;;;;;;20.60;100.00;99546.78;5115198;28;20066;-50
2021/09/11 03:32:33;;;;;;;5.40;1.08;;;;;;;20.60;100.00;99541.13;5114605;28;20073;-51
2021/09/11 03:35:36;;;;;;;4.53;1.17;;;;;;;20.67;100.00;99543.28;5115189;28;20043;-51
2021/09/11 03:38:39;;;;;;;2.58;0.98;;;;;;;20.70;100.00;99533.69;5115595;28;20491;-50
2021/09/11 03:41:42;;;;;;;4.35;1.35;;;;;;;20.75;100.00;99541.25;5115366;28;20042;-50
2021/09/11 03:44:45;;;;;;;3.08;0.82;;;;;;;20.81;100.00;99543.97;5115552;28;20051;-50
2021/09/11 03:47:47;;;;;;;5.65;1.77;;;;;;;20.78;100.00;99539.41;5102766;28;20115;-50
2021/09/11 03:50:50;;;;;;;6.93;1.63;;;;;;;20.80;100.00;99543.19;5115411;28;20051;-51
2021/09/11 03:53:53;;;;;;;3.13;0.82;;;;;;;20.77;100.00;99552.03;5114834;28;20120;-51
2021/09/11 03:56:56;;;;;;;7.32;0.98;;;;;;;20.85;100.00;99556.47;5115603;28;20429;-50
2021/09/11 03:59:59;;;;;;;3.63;0.77;;;;;;;20.79;100.00;99550.16;5115273;28;20419;-50
2021/09/11 04:03:02;;;;;;;3.88;0.77;;;;;;;20.84;100.00;99549.25;5114479;28;20054;-50
2021/09/11 04:06:05;;;;;;;5.75;0.82;;;;;;;20.84;100.00;99559.81;5115026;28;20065;-50
2021/09/11 04:09:08;;;;;;;5.75;1.00;;;;;;;20.84;100.00;99557.00;5114166;28;20096;-50
2021/09/11 04:12:11;;;;;;;7.82;1.48;;;;;;;20.89;100.00;99554.03;5114634;28;20047;-50
2021/09/11 04:15:14;;;;;;;6.05;1.40;;;;;;;20.85;100.00;99559.28;5114843;28;20457;-50
2021/09/11 04:18:17;;;;;;;1.92;0.90;;;;;;;18.56;100.00;99572.25;5114669;28;20039;-50
2021/09/11 04:21:20;;;;;;;3.38;1.33;;;;;;;18.55;100.00;99592.56;5114676;28;20047;-50
2021/09/11 04:24:23;;;;;;;8.60;1.35;;;;;;;18.82;100.00;99580.03;5094109;28;20650;-50
2021/09/11 04:27:26;;;;;;;2.55;0.63;;;;;;;18.87;100.00;99579.19;5093805;28;20097;-50
2021/09/11 04:30:29;;;;;;;2.25;1.23;;;;;;;18.83;100.00;99582.34;5110085;28;20102;-50
2021/09/11 04:33:32;;;;;;;3.75;1.38;;;;;;;18.86;100.00;99588.97;5113957;28;20042;-50
2021/09/11 04:36:35;;;;;;;9.23;1.70;;;;;;;18.79;100.00;99586.78;5112946;28;20046;-50
2021/09/11 04:39:38;;;;;;;12.88;1.95;;;;;;;19.01;100.00;99583.56;5114121;28;20050;-50
2021/09/11 04:42:41;;;;;;;4.38;0.95;;;;;;;19.65;100.00;99575.69;5114168;28;20050;-50
2021/09/11 04:45:44;;;;;;;5.68;1.35;;;;;;;19.87;100.00;99572.38;5114207;28;20100;-50
2021/09/11 04:48:47;;;;;;;4.38;0.95;;;;;;;19.88;100.00;99578.81;5113991;28;20047;-50
2021/09/11 04:51:50;;;;;;;5.38;1.83;;;;;;;20.09;100.00;99565.47;5113616;28;20043;-50
2021/09/11 04:54:53;;;;;;;6.28;1.73;;;;;;;20.06;100.00;99575.03;5113878;28;20042;-50
2021/09/11 04:57:56;;;;;;;5.28;1.95;;;;;;;20.09;100.00;99576.78;5113742;28;20390;-50
2021/09/11 05:00:59;;;;;;;3.40;0.65;;;;;;;20.06;100.00;99580.69;5113902;28;20404;-50
2021/09/11 05:04:01;;;;;;;3.20;1.02;;;;;;;19.99;100.00;99589.88;5113576;28;20069;-51
2021/09/11 05:07:04;;;;;;;2.03;0.45;;;;;;;20.13;100.00;99591.34;5114000;28;20089;-50
2021/09/11 05:10:08;;;;;;;2.17;0.82;;;;;;;20.13;100.00;99589.28;5113654;28;20414;-51
2021/09/11 05:13:11;;;;;;;3.25;0.93;;;;;;;20.09;100.00;99593.75;5113177;28;20552;-50
2021/09/11 05:16:14;;;;;;;2.88;0.82;;;;;;;20.08;100.00;99595.06;5113459;28;20050;-51
2021/09/11 05:19:17;;;;;;;1.83;0.57;;;;;;;20.04;100.00;99603.09;5113769;28;20043;-50
2021/09/11 05:22:20;;;;;;;5.50;1.08;;;;;;;20.10;100.00;99604.50;5113495;28;20038;-50
2021/09/11 05:25:23;;;;;;;0.82;0.63;;;;;;;20.04;100.00;99603.88;5113535;28;20042;-51
2021/09/11 05:28:26;;;;;;;2.92;0.88;;;;;;;20.02;100.00;99605.72;5113195;28;20077;-50
2021/09/11 05:31:29;;;;;;;3.70;0.88;;;;;;;19.73;100.00;99612.53;5113108;28;20587;-51
2021/09/11 05:34:32;;;;;;;5.35;1.30;;;;;;;19.60;100.00;99613.28;5112725;28;20047;-50
2021/09/11 05:37:35;;;;;;;12.27;1.52;;;;;;;19.61;100.00;99620.44;5112751;28;20081;-51
2021/09/11 05:40:38;;;;;;;9.38;1.88;;;;;;;19.60;100.00;99622.50;5112768;28;20100;-50
2021/09/11 05:43:42;;;;;;;7.80;1.35;;;;;;;19.83;100.00;99627.72;5112280;28;20042;-50
2021/09/11 05:46:45;;;;;;;6.35;1.23;;;;;;;19.89;100.00;99628.34;5100368;28;20047;-50
2021/09/11 05:49:49;;;;;;;4.35;1.50;;;;;;;19.89;100.00;99636.84;5112917;28;20116;-51
2021/09/11 05:52:52;;;;;;;3.80;1.75;;;;;;;19.84;100.00;99640.56;5112713;28;20082;-51
2021/09/11 05:55:56;;;;;;;1.67;1.02;;;;;;;19.82;100.00;99643.13;5112828;28;20093;-50
2021/09/11 05:58:58;;;;;;;12.00;2.13;;;;;;;19.84;100.00;99651.88;5113041;28;20495;-51
2021/09/11 06:02:01;;;;;;;6.68;1.45;;;;;;;19.75;100.00;99652.28;5112160;28;20497;-51
2021/09/11 06:05:04;;;;;;;5.05;1.33;;;;;;;19.73;100.00;99649.25;5113003;28;20042;-50
2021/09/11 06:08:08;;;;;;;8.32;0.85;;;;;;;19.72;100.00;99656.19;5112716;28;20046;-51
2021/09/11 06:11:11;;;;;;;3.75;1.80;;;;;;;19.79;100.00;99652.72;5111770;28;20536;-51
2021/09/11 06:14:14;;;;;;;12.95;1.00;;;;;;;19.81;100.00;99655.78;5113066;28;20043;-51
2021/09/11 06:17:17;;;;;;;3.35;0.85;;;;;;;19.38;100.00;99659.66;5112838;28;20437;-51
2021/09/11 06:20:19;;;;;;;6.63;0.88;;;;;;;19.15;100.00;99666.97;5100346;28;20376;-51
2021/09/11 06:23:23;;;;;;;4.50;1.15;;;;;;;18.96;100.00;99659.84;5112379;28;20126;-51
2021/09/11 06:26:25;;;;;;;2.70;1.00;;;;;;;19.15;100.00;99658.50;5113738;28;20085;-51
2021/09/11 06:29:28;;;;;;;2.83;1.05;;;;;;;19.43;100.00;99653.16;5116689;28;20104;-51
2021/09/11 06:32:31;;;;;;;6.53;1.05;;;;;;;19.47;100.00;99659.22;5116152;28;20050;-51
2021/09/11 06:35:34;;;;;;;5.13;0.98;;;;;;;19.33;100.00;99673.84;5115817;28;20084;-51
2021/09/11 06:38:38;;;;;;;3.55;0.93;;;;;;;19.67;100.00;99672.72;5113941;28;20093;-51
2021/09/11 06:41:40;;;;;;;1.00;0.40;;;;;;;19.68;100.00;99668.56;5115708;28;20404;-51
2021/09/11 06:44:43;;;;;;;2.83;0.95;;;;;;;19.71;100.00;99678.03;5115353;28;20042;-51
2021/09/11 06:47:46;;;;;;;4.32;1.33;;;;;;;19.70;100.00;99684.25;5093880;28;20449;-51
2021/09/11 06:50:49;;;;;;;2.03;0.77;;;;;;;19.67;100.00;99684.03;5114603;28;20157;-51
2021/09/11 06:53:52;;;;;;;4.65;1.17;;;;;;;19.94;100.00;99681.19;5096095;28;20135;-51
2021/09/11 06:56:55;;;;;;;2.70;0.90;;;;;;;20.10;100.00;99691.38;5095948;28;20051;-50
2021/09/11 06:59:58;;;;;;;3.20;0.55;;;;;;;20.24;100.00;99695.75;5095921;28;20096;-51
2021/09/11 07:03:01;;;;;;;3.65;1.08;;;;;;;20.20;100.00;99692.47;5095768;28;20152;-51
2021/09/11 07:06:05;;;;;;;1.35;0.55;;;;;;;20.30;100.00;99702.06;5095844;28;20050;-51
2021/09/11 07:09:09;;;;;;;4.80;1.17;;;;;;;20.42;100.00;99694.88;5095433;28;20538;-51
2021/09/11 07:12:12;;;;;;;1.73;0.75;;;;;;;20.46;100.00;99709.44;5094747;28;20143;-51
2021/09/11 07:15:15;;;;;;;2.58;0.85;;;;;;;20.34;100.00;99710.97;5095575;28;20132;-51
2021/09/11 07:18:18;;;;;;;1.17;0.68;;;;;;;20.40;100.00;99705.94;5095215;28;20043;-50
2021/09/11 07:21:21;;;;;;;2.67;0.77;;;;;;;20.36;100.00;99711.94;5070858;28;20063;-50
2021/09/11 07:24:24;;;;;;;2.85;0.82;;;;;;;20.37;100.00;99718.38;5095740;28;20055;-50
2021/09/11 07:27:28;;;;;;;8.57;1.13;;;;;;;20.49;100.00;99711.16;5095063;28;20071;-50
2021/09/11 07:30:31;;;;;;;2.10;0.73;;;;;;;20.53;100.00;99711.56;5095278;28;20043;-50
2021/09/11 07:33:34;;;;;;;4.18;0.90;;;;;;;20.59;100.00;99726.38;5094594;28;20051;-50
2021/09/11 07:36:38;;;;;;;2.20;0.75;;;;;;;20.52;100.00;99726.28;5093790;28;20584;-50
2021/09/11 07:39:41;;;;;;;2.92;0.65;;;;;;;20.42;100.00;99731.66;5094448;28;20035;-50
2021/09/11 07:42:45;;;;;;;1.38;0.70;;;;;;;20.24;100.00;99735.34;5110512;28;20042;-50
2021/09/11 07:45:47;;;;;;;2.50;0.60;;;;;;;20.25;100.00;99731.22;5115095;28;20089;-50
2021/09/11 07:48:51;;;;;;;3.42;0.85;;;;;;;19.22;100.00;99728.47;5114813;28;20537;-51
2021/09/11 07:51:53;;;;;;;3.85;0.88;;;;;;;19.07;100.00;99739.47;5115072;28;20277;-51
2021/09/11 07:54:56;;;;;;;4.53;1.05;;;;;;;19.42;100.00;99742.03;5114966;28;20054;-50
2021/09/11 07:57:59;;;;;;;3.15;0.70;;;;;;;19.59;100.00;99739.66;5114839;28;20092;-50
2021/09/11 08:01:02;;;;;;;2.72;1.15;;;;;;;19.59;100.00;99736.84;5115101;28;20096;-50
2021/09/11 08:04:05;;;;;;;2.00;0.55;;;;;;;19.67;100.00;99740.53;5113763;28;20408;-50
2021/09/11 08:07:07;;;;;;;3.97;0.70;;;;;;;19.72;100.00;99743.78;5113183;28;20050;-50
2021/09/11 08:10:11;;;;;;;3.00;0.45;;;;;;;19.66;100.00;99746.75;5113068;28;20042;-50
2021/09/11 08:13:15;;;;;;;1.58;0.45;;;;;;;19.65;100.00;99750.84;5113549;28;20134;-50
2021/09/11 08:16:18;;;;;;;1.88;0.32;;;;;;;19.60;100.00;99755.28;5112476;28;20038;-51
2021/09/11 08:19:21;;;;;;;1.85;0.93;;;;;;;19.58;100.00;99765.59;5112404;28;20035;-50
2021/09/11 08:22:25;;;;;;;1.65;0.77;;;;;;;19.58;100.00;99760.72;5110890;28;20127;-50
2021/09/11 08:25:28;;;;;;;5.25;0.50;;;;;;;19.58;100.00;99768.44;5114671;28;20400;-50
2021/09/11 08:28:31;;;;;;;3.45;0.75;;;;;;;19.71;100.00;99776.19;5114121;28;20043;-50
2021/09/11 08:31:34;;;;;;;2.85;0.90;;;;;;;19.78;100.00;99776.31;5114712;28;20069;-51
2021/09/11 08:34:37;;;;;;;2.47;0.80;;;;;;;20.04;100.00;99775.56;5114243;28;20109;-50
2021/09/11 08:37:40;;;;;;;3.63;1.00;;;;;;;20.36;100.00;99779.06;5114157;28;20449;-51
2021/09/11 08:40:44;;;;;;;5.30;0.88;;;;;;;20.51;100.00;99784.94;5114016;28;20043;-50
2021/09/11 08:43:47;;;;;;;4.13;1.30;;;;;;;20.46;100.00;99796.38;5114110;28;20525;-50
2021/09/11 08:46:50;;;;;;;2.10;0.63;;;;;;;20.47;100.00;99787.34;5113869;28;20043;-50
2021/09/11 08:49:53;;;;;;;3.03;1.40;;;;;;;20.45;100.00;99792.78;5100922;28;20067;-51
2021/09/11 08:52:56;;;;;;;3.13;0.50;;;;;;;20.35;100.00;99803.03;5113724;28;20111;-50
2021/09/11 08:56:00;;;;;;;5.55;0.95;;;;;;;20.26;100.00;99789.31;5113838;28;20046;-50
2021/09/11 08:59:11;;;;;;;1.30;0.63;;;;;;;20.25;100.00;99794.19;5113543;28;20517;-50
2021/09/11 09:02:14;;;;;;;;;;;;;;;20.35;100.00;99797.38;5114200;28;20070;-50
2021/09/11 09:05:26;;;;;;;3.88;0.90;;;;;;;20.45;100.00;99804.09;5113533;28;19919;-50
2021/09/11 09:08:29;;;;;;;1.60;0.63;;;;;;;20.46;100.00;99788.66;5112831;28;20145;-50
2021/09/11 09:11:35;;;;;;;3.25;1.38;;;;;;;20.45;100.00;99795.59;5113399;28;20474;-51
2021/09/11 09:14:38;;;;;;;2.33;1.02;;;;;;;20.51;100.00;99793.41;5101053;28;20074;-51
2021/09/11 09:17:53;;;;;;;3.72;0.68;;;;;;;20.64;100.00;99790.56;5113555;28;20038;-50
2021/09/11 09:21:24;;;;;;;3.17;1.27;;;;;;;20.81;100.00;99796.63;5101129;28;20062;-50
2021/09/11 09:24:36;;;;;;;3.42;0.50;;;;;;;20.96;100.00;99799.63;5093325;28;20097;-51
2021/09/11 09:27:47;;;;;;;2.92;0.60;;;;;;;20.87;100.00;99807.84;5092741;28;20055;-50
2021/09/11 09:30:49;;;;;;;;;;;;;;;20.82;100.00;99806.66;5093624;28;20127;-50
2021/09/11 09:33:53;;;;;;;1.83;0.50;;;;;;;20.77;100.00;99810.34;5092893;28;19919;-50
2021/09/11 09:36:58;;;;;;;1.48;0.60;;;;;;;20.82;100.00;99806.66;5092481;28;20063;-50
2021/09/11 09:40:01;;;;;;;3.97;0.95;;;;;;;20.70;100.00;99799.72;5092838;28;20078;-50
2021/09/11 09:43:04;;;;;;;2.67;0.50;;;;;;;21.23;100.00;99806.00;5092991;28;20042;-50
2021/09/11 09:46:15;;;;;;;2.25;0.55;;;;;;;21.27;100.00;99800.75;5093372;28;20039;-50
2021/09/11 09:49:20;;;;;;;;;;;;;;;20.95;100.00;99809.47;5093367;28;20175;-50
2021/09/11 09:52:23;;;;;;;4.13;1.10;;;;;;;21.01;100.00;99807.25;5092769;28;19918;-50
2021/09/11 09:55:26;;;;;;;2.13;0.90;;;;;;;21.16;100.00;99805.94;5092996;28;20456;-50
2021/09/11 09:58:33;;;;;;;5.43;0.88;;;;;;;21.03;100.00;99803.88;5092430;28;20042;-50
2021/09/11 10:01:38;;;;;;;2.58;0.80;;;;;;;20.81;100.00;99812.88;5097039;28;20067;-50
2021/09/11 10:04:41;;;;;;;0.95;0.52;;;;;;;20.91;100.00;99806.19;5096866;28;20062;-50
2021/09/11 10:08:01;;;;;;;2.10;0.82;;;;;;;20.98;100.00;99808.38;5096801;28;20047;-50
2021/09/11 10:11:11;;;;;;;1.98;0.30;;;;;;;21.33;100.00;99803.47;5096610;28;20100;-50
2021/09/11 10:14:14;;;;;;;3.10;0.55;;;;;;;21.46;100.00;99800.59;5096617;28;20042;-50
2021/09/11 10:17:32;;;;;;;1.67;1.15;;;;;;;21.49;100.00;99802.28;5096445;28;20400;-50
2021/09/11 10:21:10;;;;;;;1.48;0.32;;;;;;;21.54;100.00;99801.41;5096333;28;20074;-50
2021/09/11 10:24:14;;;;;;;2.25;0.73;;;;;;;21.44;100.00;99797.53;5096712;28;20074;-50
2021/09/11 10:27:23;;;;;;;1.75;0.35;;;;;;;21.48;100.00;99795.13;5096488;28;20062;-51
2021/09/11 10:30:27;;;;;;;2.63;0.68;;;;;;;21.55;100.00;99798.00;5083658;28;20093;-50
2021/09/11 10:33:45;;;;;;;1.45;0.50;;;;;;;21.49;100.00;99799.47;5096091;28;20046;-50
2021/09/11 10:36:48;;;;;;;3.63;0.88;;;;;;;21.70;100.00;99797.41;5095914;28;20058;-50
2021/09/11 10:40:19;;;;;;;2.78;0.98;;;;;;;21.95;100.00;99800.63;5095927;28;20046;-50
2021/09/11 10:43:29;;;;;;;4.47;0.68;;;;;;;22.26;100.00;99791.03;5096185;28;20101;-50
2021/09/11 10:46:52;;;;;;;0.52;0.40;;;;;;;22.36;100.00;99780.69;5083048;28;20047;-50
2021/09/11 10:50:13;;;;;;;2.75;0.40;;;;;;;22.37;100.00;99799.97;5096067;28;20097;-50
2021/09/11 10:53:21;;;;;;;2.95;1.27;;;;;;;22.44;100.00;99796.44;5082894;28;20039;-51
2021/09/11 10:56:26;;;;;;;1.70;0.80;;;;;;;22.52;100.00;99785.84;5096091;28;20156;-50
2021/09/11 10:59:33;;;;;;;6.05;0.40;;;;;;;22.61;100.00;99793.88;5095539;28;20408;-50
2021/09/11 11:02:37;;;;;;;1.05;0.47;;;;;;;22.60;100.00;99792.38;5095444;28;20043;-50
2021/09/11 11:05:58;;;;;;;4.63;0.73;;;;;;;22.42;100.00;99806.81;5095274;28;20039;-50
2021/09/11 11:09:02;;;;;;;2.17;0.55;;;;;;;22.35;100.00;99799.03;5095883;28;20070;-50
2021/09/11 11:12:12;;;;;;;0.73;0.22;;;;;;;22.24;100.00;99794.41;5094912;28;20043;-50
2021/09/11 11:15:25;;;;;;;1.75;0.30;;;;;;;22.19;100.00;99786.81;5083558;28;20047;-56
2021/09/11 11:18:28;;;;;;;1.95;0.45;;;;;;;22.43;100.00;99803.44;5095473;28;20046;-56
2021/09/11 11:21:31;;;;;;;1.15;0.40;;;;;;;22.63;100.00;99779.88;5095449;28;20046;-56
2021/09/11 11:24:45;;;;;;;1.67;0.50;;;;;;;22.87;100.00;99783.59;5095437;28;20042;-56
2021/09/11 11:27:49;;;;;;;0.73;0.28;;;;;;;23.16;100.00;99790.69;5095296;28;20055;-56
2021/09/11 11:30:52;;;;;;;0.50;0.13;;;;;;;23.46;100.00;99785.06;5095026;28;20082;-56
2021/09/11 11:33:55;;;;;;;2.55;0.55;;;;;;;23.72;100.00;99778.25;5094007;28;20141;-56
2021/09/11 11:37:01;;;;;;;2.40;0.75;;;;;;;23.76;100.00;99779.41;5094773;28;20408;-49
2021/09/11 11:40:15;;;;;;;0.98;0.20;;;;;;;23.40;100.00;99786.59;5094837;28;20059;-51
2021/09/11 11:43:19;;;;;;;2.25;0.65;;;;;;;23.03;100.00;99788.75;5095130;28;20127;-51
2021/09/11 11:46:21;;;;;;;0.85;0.43;;;;;;;22.56;100.00;99791.97;5094774;28;20392;-50
2021/09/11 11:49:33;;;;;;;1.10;0.40;;;;;;;22.46;100.00;99782.44;5094893;28;20092;-50
2021/09/11 11:52:36;;;;;;;0.77;0.32;;;;;;;22.80;100.00;99781.47;5094198;28;20047;-49
2021/09/11 11:55:45;;;;;;;2.80;0.50;;;;;;;22.87;100.00;99781.50;5094424;28;20062;-49
2021/09/11 11:58:57;;;;;;;2.28;0.30;;;;;;;22.81;100.00;99782.97;5094566;28;20043;-51
2021/09/11 12:02:00;;;;;;;2.95;0.45;;;;;;;22.90;100.00;99779.63;5094542;28;20051;-49
2021/09/11 12:05:25;;;;;;;0.95;0.20;;;;;;;22.94;100.00;99782.84;5094316;28;20051;-51
2021/09/11 12:08:29;;;;;;;4.28;0.75;;;;;;;23.04;100.00;99783.84;5094053;28;20105;-49
2021/09/11 12:11:32;;;;;;;1.48;0.30;;;;;;;22.98;100.00;99784.00;5094007;28;20479;-50
2021/09/11 12:14:34;;;;;;;0.75;0.20;;;;;;;23.02;100.00;99787.22;5094169;28;20055;-51
2021/09/11 12:17:55;;;;;;;4.18;0.57;;;;;;;22.93;100.00;99795.53;5093388;28;20089;-49
2021/09/11 12:21:05;;;;;;;4.50;0.68;;;;;;;22.15;100.00;99786.44;5093600;28;20058;-54
2021/09/11 12:24:20;;;;;;;1.88;0.82;;;;;;;22.01;100.00;99785.00;5094145;28;20150;-53
2021/09/11 12:27:28;;;;;;;1.35;0.50;;;;;;;21.83;100.00;99789.59;5093826;28;20084;-55
2021/09/11 12:30:50;;;;;;;1.40;0.60;;;;;;;21.79;100.00;99794.81;5094070;28;20043;-57
2021/09/11 12:34:03;;;;;;;1.90;0.55;;;;;;;21.81;100.00;99802.75;5093946;28;20043;-55
2021/09/11 12:37:06;;;;;;;1.98;0.60;;;;;;;21.85;100.00;99797.56;5093619;28;20113;-55
2021/09/11 12:40:10;;;;;;;0.47;0.40;;;;;;;21.86;100.00;99784.88;5093460;28;20102;-55
2021/09/11 12:43:13;;;;;;;0.95;0.25;;;;;;;21.85;100.00;99786.97;5093902;28;20062;-57
2021/09/11 12:46:39;;;;;;;2.05;0.40;;;;;;;20.47;100.00;99797.88;5093517;28;20415;-57
2021/09/11 12:49:44;;;;;;;0.63;0.20;;;;;;;20.25;100.00;99799.09;5093940;28;20368;-57
2021/09/11 12:52:47;;;;;;;2.70;0.40;;;;;;;20.08;100.00;99798.63;5093415;28;20498;-57
2021/09/11 12:55:50;;;;;;;0.90;0.28;;;;;;;20.02;100.00;99800.78;5093757;28;20086;-57
2021/09/11 12:58:58;;;;;;;2.05;0.22;;;;;;;19.78;100.00;99813.03;5093563;28;20082;-57
2021/09/11 13:02:01;;;;;;;0.77;0.30;;;;;;;19.75;100.00;99808.47;5094066;28;20431;-56
2021/09/11 13:05:05;;;;;;;1.52;0.47;;;;;;;19.84;100.00;99810.13;5093417;28;20051;-57
2021/09/11 13:08:07;;;;;;;2.50;0.47;;;;;;;19.71;100.00;99810.09;5093254;28;20047;-56
2021/09/11 13:11:16;;;;;;;29.05;0.75;;;;;;;19.54;100.00;99801.91;5093148;28;20054;-56
2021/09/11 13:14:19;;;;;;;0.75;0.75;;;;;;;19.74;100.00;99812.59;5093428;28;20047;-56
2021/09/11 13:17:22;;;;;;;0.77;0.30;;;;;;;19.86;100.00;99818.84;5093251;28;20087;-56
2021/09/11 13:20:25;;;;;;;3.22;0.35;;;;;;;20.37;100.00;99820.97;5080854;28;20047;-56
2021/09/11 13:23:28;;;;;;;0.50;0.38;;;;;;;20.90;100.00;99821.66;5092895;28;20093;-56
2021/09/11 13:26:31;;;;;;;7.07;0.68;;;;;;;21.30;100.00;99824.41;5093121;28;20515;-56
2021/09/11 13:29:34;;;;;;;1.88;0.55;;;;;;;21.16;100.00;99811.59;5092877;28;20051;-57
2021/09/11 13:32:37;;;;;;;0.90;0.20;;;;;;;20.92;100.00;99816.19;5093146;28;20097;-57
2021/09/11 13:35:40;;;;;;;1.88;0.88;;;;;;;20.98;100.00;99813.25;5092804;28;20043;-57
2021/09/11 13:38:43;;;;;;;0.93;0.38;;;;;;;21.26;100.00;99809.81;5093022;28;20069;-57
2021/09/11 13:41:46;;;;;;;1.55;0.57;;;;;;;21.45;100.00;99811.16;5093014;28;20070;-57
2021/09/11 13:44:52;;;;;;;5.18;0.35;;;;;;;21.46;100.00;99804.16;5092669;28;20170;-58
2021/09/11 13:47:55;;;;;;;0.65;0.20;;;;;;;21.69;100.00;99795.88;5092759;28;20051;-57
2021/09/11 13:50:58;;;;;;;1.00;0.28;;;;;;;21.67;100.00;99801.34;5092828;28;20113;-57
2021/09/11 13:54:01;;;;;;;0.60;0.28;;;;;;;22.41;100.00;99803.22;5092971;28;20046;-57
2021/09/11 13:57:04;;;;;;;0.40;0.17;;;;;;;22.68;100.00;99800.91;5080467;28;20126;-57
2021/09/11 14:00:07;;;;;;;0.85;0.50;;;;;;;22.78;100.00;99799.09;5093077;28;20046;-57
2021/09/11 14:03:11;;;;;;;1.88;0.30;;;;;;;22.90;100.00;99796.66;5092691;28;20492;-57
2021/09/11 14:06:13;;;;;;;1.42;0.55;;;;;;;22.98;100.00;99797.44;5093072;28;20460;-58
2021/09/11 14:09:16;;;;;;;0.40;0.35;;;;;;;22.83;100.00;99800.22;5079782;28;20135;-57
2021/09/11 14:12:19;;;;;;;0.60;0.13;;;;;;;22.69;100.00;99815.88;5092655;28;20043;-57
2021/09/11 14:15:23;;;;;;;0.20;0.10;;;;;;;22.60;100.00;99817.94;5092781;28;20040;-57
2021/09/11 14:18:25;;;;;;;6.13;0.13;;;;;;;22.66;100.00;99817.00;5092586;28;20070;-57
2021/09/11 14:21:30;;;;;;;1.92;0.30;;;;;;;22.61;100.00;99810.16;5092346;28;20039;-62